Time;durP1;ratioP1;P1;durP2;ratioP2;P2;SDS_P1;SDS_P2;PMS_P1;PMS_P2;Temp;Humidity;BMP_temperature;BMP_pressure;BME280_temperature;BME280_humidity;BME280_pressure;Samples;Min_cycle;Max_cycle;Signal;HPM_P1;HPM_P2
2021/03/09 00:00:20;;;;;;;14.50;8.90;;;;;;;3.66;53.82;96776.00;5054566;28;20293;-68
2021/03/09 00:02:45;;;;;;;16.37;9.60;;;;;;;3.64;53.84;96772.75;5072073;28;20179;-67
2021/03/09 00:05:12;;;;;;;17.40;10.47;;;;;;;3.54;53.63;96772.63;5072478;28;20420;-66
2021/03/09 00:07:37;;;;;;;12.97;8.77;;;;;;;3.41;54.13;96772.72;5072008;28;20178;-65
2021/03/09 00:10:04;;;;;;;14.00;9.20;;;;;;;3.41;54.25;96777.91;5073291;28;20545;-66
2021/03/09 00:12:30;;;;;;;13.20;9.73;;;;;;;3.30;54.47;96777.91;5030383;28;20677;-68
2021/03/09 00:14:56;;;;;;;14.23;9.47;;;;;;;3.27;54.69;96776.38;5070733;28;20420;-66
2021/03/09 00:17:22;;;;;;;18.40;9.80;;;;;;;3.29;55.06;96773.66;5075339;28;20214;-65
2021/03/09 00:19:47;;;;;;;15.60;10.40;;;;;;;3.31;54.69;96776.97;5073884;28;20259;-66
2021/03/09 00:22:13;;;;;;;15.87;10.63;;;;;;;3.35;55.32;96774.03;5074859;28;20181;-66
2021/03/09 00:24:39;;;;;;;15.50;10.13;;;;;;;3.45;54.68;96774.16;5070828;28;20178;-66
2021/03/09 00:27:05;;;;;;;18.50;10.17;;;;;;;3.52;54.13;96774.50;5074608;28;20179;-66
2021/03/09 00:29:38;;;;;;;14.40;9.73;;;;;;;3.56;54.29;96775.94;5073128;28;20290;-66
2021/03/09 00:32:08;;;;;;;17.03;10.07;;;;;;;3.54;53.94;96770.03;5075234;28;20440;-67
2021/03/09 00:34:34;;;;;;;13.73;9.17;;;;;;;3.58;53.69;96766.28;5059300;28;20979;-67
2021/03/09 00:37:00;;;;;;;14.70;9.67;;;;;;;3.58;53.83;96762.84;5074917;28;20559;-68
2021/03/09 00:39:26;;;;;;;18.53;10.47;;;;;;;3.58;54.10;96762.84;5075670;28;20459;-65
2021/03/09 00:41:52;;;;;;;21.90;10.30;;;;;;;3.54;53.87;96765.66;5075161;28;20812;-66
2021/03/09 00:44:18;;;;;;;15.57;10.20;;;;;;;3.49;53.96;96762.63;5066528;28;20731;-66
2021/03/09 00:46:44;;;;;;;19.60;9.90;;;;;;;3.37;54.44;96756.59;5069769;28;20425;-65
2021/03/09 00:49:10;;;;;;;14.40;9.53;;;;;;;3.18;54.13;96761.56;5068019;28;20432;-65
2021/03/09 00:51:36;;;;;;;14.90;9.93;;;;;;;3.14;54.89;96754.94;5076066;28;20448;-66
2021/03/09 00:54:02;;;;;;;14.70;10.53;;;;;;;3.09;54.70;96751.91;5066351;28;20183;-67
2021/03/09 00:56:27;;;;;;;15.70;9.80;;;;;;;3.02;55.22;96751.53;5073888;28;20206;-67
2021/03/09 00:58:53;;;;;;;12.80;9.27;;;;;;;3.09;55.06;96759.69;5074340;28;20183;-67
2021/03/09 01:01:19;;;;;;;14.63;9.93;;;;;;;3.11;55.31;96758.59;5074213;28;20217;-67
2021/03/09 01:03:45;;;;;;;15.00;9.13;;;;;;;3.07;55.28;96754.59;5074539;28;20209;-68
2021/03/09 01:06:11;;;;;;;22.53;10.23;;;;;;;3.17;54.84;96754.72;5074759;28;20515;-67
2021/03/09 01:08:37;;;;;;;12.33;8.93;;;;;;;3.22;54.48;96753.44;5075797;28;20236;-67
2021/03/09 01:11:02;;;;;;;13.10;9.43;;;;;;;3.22;54.51;96750.00;5087288;28;20452;-68
2021/03/09 01:13:28;;;;;;;14.80;9.73;;;;;;;3.13;54.88;96748.97;5085601;28;20182;-68
2021/03/09 01:15:54;;;;;;;17.93;9.83;;;;;;;3.08;55.22;96745.88;5108862;28;20729;-68
2021/03/09 01:18:20;;;;;;;14.50;10.23;;;;;;;3.12;55.21;96743.88;5075601;28;20202;-67
2021/03/09 01:20:46;;;;;;;14.83;9.50;;;;;;;3.14;54.84;96748.03;5076001;28;20202;-67
2021/03/09 01:23:12;;;;;;;16.10;9.93;;;;;;;3.03;55.04;96748.00;5076553;28;20421;-66
2021/03/09 01:25:38;;;;;;;16.30;9.80;;;;;;;2.89;55.54;96742.13;5085231;28;20409;-68
2021/03/09 01:28:04;;;;;;;16.30;10.20;;;;;;;2.80;55.38;96735.03;5079157;28;20957;-68
2021/03/09 01:30:29;;;;;;;16.70;10.03;;;;;;;2.66;55.80;96743.81;5084859;28;20581;-68
2021/03/09 01:32:55;;;;;;;20.90;9.30;;;;;;;2.76;56.49;96733.63;5057561;28;20253;-67
2021/03/09 01:35:21;;;;;;;14.67;9.90;;;;;;;2.86;55.98;96734.56;5035792;28;20187;-67
2021/03/09 01:37:46;;;;;;;13.63;9.30;;;;;;;2.87;56.08;96733.63;5052975;28;20511;-67
2021/03/09 01:40:13;;;;;;;17.10;10.60;;;;;;;2.90;56.04;96722.22;5053918;28;20624;-67
2021/03/09 01:42:38;;;;;;;14.50;9.83;;;;;;;2.95;55.84;96727.03;5066051;28;20184;-67
2021/03/09 01:45:06;;;;;;;17.00;10.00;;;;;;;2.94;55.79;96723.66;5064622;28;20770;-67
2021/03/09 01:47:32;;;;;;;15.37;9.40;;;;;;;2.85;55.70;96714.81;5073204;28;20174;-67
2021/03/09 01:49:59;;;;;;;18.40;10.07;;;;;;;2.75;55.83;96719.03;5042872;28;20464;-66
2021/03/09 01:52:25;;;;;;;12.17;8.80;;;;;;;2.57;56.35;96711.69;5052809;28;20426;-66
2021/03/09 01:54:51;;;;;;;14.37;10.20;;;;;;;2.58;56.63;96708.16;5054455;28;20418;-66
2021/03/09 01:57:17;;;;;;;13.73;9.40;;;;;;;2.54;57.34;96698.16;5064215;28;20471;-67
2021/03/09 01:59:44;;;;;;;16.37;10.57;;;;;;;2.67;56.91;96695.47;5071851;28;20233;-67
2021/03/09 02:02:10;;;;;;;14.90;10.00;;;;;;;2.72;56.59;96695.97;5072743;28;20206;-66
2021/03/09 02:04:35;;;;;;;17.93;10.83;;;;;;;2.63;56.64;96694.06;5071287;28;21023;-65
2021/03/09 02:07:01;;;;;;;16.03;9.93;;;;;;;2.26;57.63;96690.69;5072409;28;20693;-66
2021/03/09 02:09:27;;;;;;;18.63;10.37;;;;;;;2.16;58.24;96687.13;5073496;28;20409;-66
2021/03/09 02:11:53;;;;;;;19.50;11.10;;;;;;;2.25;58.07;96686.47;5054683;28;20425;-66
2021/03/09 02:14:42;;;;;;;17.27;11.47;;;;;;;2.24;57.94;96687.41;5070248;28;20946;-65
2021/03/09 02:17:23;;;;;;;16.00;11.60;;;;;;;2.07;58.27;96680.03;5072508;28;20258;-67
2021/03/09 02:20:19;;;;;;;18.80;11.93;;;;;;;2.23;58.61;96683.16;5071623;28;20523;-66
2021/03/09 02:23:03;;;;;;;15.57;10.90;;;;;;;2.35;57.69;96685.78;5062599;28;20413;-66
2021/03/09 02:25:35;;;;;;;16.60;11.60;;;;;;;2.32;58.18;96680.81;5067726;28;20495;-65
2021/03/09 02:28:21;;;;;;;16.53;10.90;;;;;;;2.23;58.58;96675.41;5067979;28;20486;-66
2021/03/09 02:30:47;;;;;;;18.63;11.10;;;;;;;2.11;58.61;96678.91;5067364;28;20440;-66
2021/03/09 02:33:20;;;;;;;20.77;11.43;;;;;;;2.10;58.79;96679.81;5071751;28;20432;-65
2021/03/09 02:35:55;;;;;;;16.13;10.60;;;;;;;2.18;58.51;96672.31;5060409;28;20988;-66
2021/03/09 02:38:22;;;;;;;15.77;10.80;;;;;;;2.24;58.39;96660.69;5064770;28;20408;-66
2021/03/09 02:40:52;;;;;;;17.13;10.90;;;;;;;2.01;58.78;96665.00;5070417;28;20436;-66
2021/03/09 02:43:18;;;;;;;16.17;10.47;;;;;;;2.05;59.31;96669.81;5059622;28;20437;-66
2021/03/09 02:45:47;;;;;;;20.10;11.83;;;;;;;1.89;59.80;96666.69;5067815;28;20938;-65
2021/03/09 02:48:14;;;;;;;18.70;11.70;;;;;;;1.96;58.99;96671.31;5052611;28;20463;-66
2021/03/09 02:50:40;;;;;;;29.80;14.77;;;;;;;1.76;59.46;96672.75;5055964;28;20471;-64
2021/03/09 02:53:08;;;;;;;23.70;12.57;;;;;;;1.55;60.10;96672.53;5071038;28;20435;-65
2021/03/09 02:55:35;;;;;;;20.33;11.57;;;;;;;1.61;60.32;96671.25;5055436;28;20185;-65
2021/03/09 02:58:05;;;;;;;16.03;10.30;;;;;;;1.86;59.68;96667.75;5063157;28;20552;-64
2021/03/09 03:00:31;;;;;;;23.87;11.60;;;;;;;1.96;59.31;96666.16;5073525;28;20851;-64
2021/03/09 03:02:58;;;;;;;19.50;11.40;;;;;;;1.85;60.08;96663.50;5073407;28;20435;-67
2021/03/09 03:05:24;;;;;;;17.13;11.80;;;;;;;1.94;59.77;96662.03;5073719;28;20689;-66
2021/03/09 03:07:51;;;;;;;16.73;11.07;;;;;;;1.94;59.66;96665.44;5071096;28;20425;-65
2021/03/09 03:10:18;;;;;;;19.10;11.30;;;;;;;1.72;60.15;96660.16;5072539;28;20443;-67
2021/03/09 03:12:45;;;;;;;19.13;10.50;;;;;;;1.74;59.63;96660.88;5072077;28;20801;-67
2021/03/09 03:15:12;;;;;;;16.70;10.33;;;;;;;1.57;60.52;96655.16;5067639;28;20429;-66
2021/03/09 03:17:40;;;;;;;18.53;12.03;;;;;;;1.61;60.95;96654.03;5052506;28;20543;-65
2021/03/09 03:20:08;;;;;;;21.90;12.43;;;;;;;1.61;60.63;96648.84;5069800;28;20971;-66
2021/03/09 03:22:37;;;;;;;18.67;11.07;;;;;;;1.75;60.38;96652.19;5070053;28;20456;-66
2021/03/09 03:25:03;;;;;;;19.10;10.10;;;;;;;1.73;59.73;96654.88;5067089;28;20425;-65
2021/03/09 03:27:30;;;;;;;16.80;11.10;;;;;;;1.66;60.15;96653.69;5070818;28;20424;-64
2021/03/09 03:29:55;;;;;;;17.70;11.60;;;;;;;1.58;60.17;96661.13;5071264;28;20455;-64
2021/03/09 03:32:21;;;;;;;16.57;11.37;;;;;;;1.61;60.04;96655.75;5053963;28;20430;-65
2021/03/09 03:34:47;;;;;;;17.17;11.13;;;;;;;1.55;60.61;96656.22;5062080;28;20180;-65
2021/03/09 03:37:13;;;;;;;22.47;12.43;;;;;;;1.57;60.35;96655.16;5062850;28;20682;-65
2021/03/09 03:39:39;;;;;;;20.40;12.23;;;;;;;1.71;60.41;96646.41;5063168;28;20291;-65
2021/03/09 03:42:05;;;;;;;21.27;11.53;;;;;;;1.73;60.20;96643.72;5061203;28;20482;-66
2021/03/09 03:44:31;;;;;;;23.13;12.10;;;;;;;1.61;59.68;96654.03;5063574;28;20428;-66
2021/03/09 03:46:57;;;;;;;17.53;11.80;;;;;;;1.59;60.76;96650.72;5068598;28;20442;-65
2021/03/09 03:49:22;;;;;;;21.30;12.60;;;;;;;1.64;60.43;96656.34;5072385;28;20196;-65
2021/03/09 03:51:52;;;;;;;20.30;11.77;;;;;;;1.59;60.29;96653.28;5068555;28;20228;-66
2021/03/09 03:54:37;;;;;;;18.40;12.50;;;;;;;1.63;60.08;96649.56;5080190;28;20192;-65
2021/03/09 03:57:23;;;;;;;19.60;12.13;;;;;;;1.55;60.16;96651.84;5072740;28;20451;-65
2021/03/09 03:59:52;;;;;;;15.70;10.90;;;;;;;1.51;60.32;96645.28;5073576;28;20443;-65
2021/03/09 04:02:18;;;;;;;19.77;13.20;;;;;;;1.42;60.86;96645.91;5069925;28;20429;-65
2021/03/09 04:04:46;;;;;;;21.10;13.67;;;;;;;1.48;60.47;96642.91;5071032;28;20425;-66
2021/03/09 04:07:13;;;;;;;21.43;12.60;;;;;;;1.52;60.08;96646.91;5056579;28;20437;-66
2021/03/09 04:09:38;;;;;;;25.67;13.30;;;;;;;1.61;60.30;96640.25;5048927;28;20432;-65
2021/03/09 04:12:05;;;;;;;20.07;12.77;;;;;;;1.65;60.03;96637.34;5058977;28;20425;-65
2021/03/09 04:14:32;;;;;;;21.43;12.63;;;;;;;1.58;60.42;96637.88;5067464;28;20179;-66
2021/03/09 04:16:59;;;;;;;21.03;12.73;;;;;;;1.62;60.48;96634.16;5059148;28;20453;-66
2021/03/09 04:19:24;;;;;;;19.33;13.23;;;;;;;1.29;61.42;96633.06;5055755;28;20432;-65
2021/03/09 04:21:50;;;;;;;19.27;12.63;;;;;;;1.52;60.98;96626.25;5041789;28;20425;-66
2021/03/09 04:24:17;;;;;;;19.77;12.70;;;;;;;1.65;60.50;96632.19;5047257;28;20221;-65
2021/03/09 04:26:44;;;;;;;23.13;13.47;;;;;;;1.63;60.48;96633.22;5056467;28;20258;-66
2021/03/09 04:29:10;;;;;;;20.10;13.33;;;;;;;1.67;60.86;96630.31;5050352;28;20477;-65
2021/03/09 04:31:38;;;;;;;20.13;13.60;;;;;;;1.58;60.76;96625.81;5059172;28;20586;-65
2021/03/09 04:34:03;;;;;;;22.20;14.13;;;;;;;1.51;60.47;96629.78;5055768;28;20557;-65
2021/03/09 04:36:30;;;;;;;17.93;12.67;;;;;;;1.47;61.19;96639.50;5057755;28;20488;-65
2021/03/09 04:38:56;;;;;;;24.40;14.20;;;;;;;1.37;61.47;96634.19;5040458;28;20178;-67
2021/03/09 04:41:22;;;;;;;23.63;15.43;;;;;;;1.57;61.19;96634.50;5042089;28;20443;-65
2021/03/09 04:43:47;;;;;;;21.53;13.50;;;;;;;1.60;61.62;96638.59;5058994;28;20452;-66
2021/03/09 04:46:13;;;;;;;20.97;14.07;;;;;;;1.52;60.82;96640.00;5041383;28;20783;-66
2021/03/09 04:48:39;;;;;;;28.60;14.80;;;;;;;1.51;61.56;96640.94;5051544;28;20544;-66
2021/03/09 04:51:09;;;;;;;25.00;15.13;;;;;;;1.41;61.08;96632.19;5052254;28;20449;-64
2021/03/09 04:53:36;;;;;;;23.27;15.27;;;;;;;1.52;61.61;96645.16;5052590;28;20190;-64
2021/03/09 04:56:02;;;;;;;21.00;13.90;;;;;;;1.57;60.82;96634.50;5059234;28;20505;-65
2021/03/09 04:58:28;;;;;;;25.63;14.27;;;;;;;1.55;61.02;96632.97;5056742;28;20517;-64
2021/03/09 05:00:54;;;;;;;22.17;14.30;;;;;;;1.44;61.10;96634.56;5053216;28;20961;-66
2021/03/09 05:03:20;;;;;;;23.73;14.80;;;;;;;1.42;60.77;96635.59;5053711;28;20433;-65
2021/03/09 05:05:46;;;;;;;24.23;14.90;;;;;;;1.36;61.11;96637.69;5053848;28;20462;-64
2021/03/09 05:08:11;;;;;;;20.43;14.83;;;;;;;1.27;61.59;96638.31;5051382;28;20178;-65
2021/03/09 05:10:37;;;;;;;22.60;15.03;;;;;;;1.44;61.69;96638.88;5053801;28;20581;-66
2021/03/09 05:13:03;;;;;;;21.90;14.23;;;;;;;1.55;61.67;96630.38;5054506;28;20556;-65
2021/03/09 05:15:29;;;;;;;20.40;13.47;;;;;;;1.67;61.08;96640.66;5053565;28;20674;-65
2021/03/09 05:17:55;;;;;;;22.60;14.93;;;;;;;1.68;61.00;96639.72;5052292;28;20445;-65
2021/03/09 05:20:20;;;;;;;25.53;14.13;;;;;;;1.59;60.81;96642.13;5057133;28;20228;-64
2021/03/09 05:22:46;;;;;;;23.80;15.40;;;;;;;1.40;61.33;96646.03;5052722;28;20183;-65
2021/03/09 05:25:13;;;;;;;26.90;15.77;;;;;;;1.15;61.89;96649.50;5053307;28;20717;-65
2021/03/09 05:27:40;;;;;;;27.97;15.53;;;;;;;1.41;61.65;96657.19;5052432;28;20597;-64
2021/03/09 05:30:07;;;;;;;22.80;14.40;;;;;;;1.42;61.83;96656.25;5051476;28;20444;-65
2021/03/09 05:32:33;;;;;;;24.80;14.57;;;;;;;1.46;61.53;96653.34;5052925;28;20420;-67
2021/03/09 05:34:58;;;;;;;22.50;15.20;;;;;;;1.55;61.32;96651.03;5052771;28;21063;-65
2021/03/09 05:37:24;;;;;;;26.17;14.07;;;;;;;1.48;60.86;96650.66;5051476;28;20259;-64
2021/03/09 05:39:50;;;;;;;23.93;15.20;;;;;;;1.45;61.77;96653.44;5053645;28;20226;-64
2021/03/09 05:42:16;;;;;;;24.90;15.00;;;;;;;1.51;61.39;96646.09;5062907;28;20184;-65
2021/03/09 05:44:41;;;;;;;22.73;14.33;;;;;;;1.52;61.83;96646.91;5057011;28;20200;-65
2021/03/09 05:47:07;;;;;;;26.37;15.37;;;;;;;1.64;61.91;96646.03;5067495;28;20444;-65
2021/03/09 05:49:33;;;;;;;25.10;15.73;;;;;;;1.65;61.68;96650.25;5064054;28;20866;-66
2021/03/09 05:51:59;;;;;;;23.90;15.27;;;;;;;1.51;61.29;96656.44;5069903;28;20183;-67
2021/03/09 05:54:25;;;;;;;23.60;15.40;;;;;;;1.57;61.54;96655.16;5053866;28;20286;-64
2021/03/09 05:56:51;;;;;;;30.10;15.60;;;;;;;1.32;62.34;96654.31;5056500;28;20496;-64
2021/03/09 05:59:17;;;;;;;22.63;15.63;;;;;;;1.47;62.37;96662.72;5060534;28;20225;-64
2021/03/09 06:01:43;;;;;;;29.10;16.17;;;;;;;1.59;61.95;96665.38;5067195;28;20225;-64
2021/03/09 06:04:09;;;;;;;27.07;15.40;;;;;;;1.79;61.85;96656.19;5062821;28;20436;-65
2021/03/09 06:06:35;;;;;;;26.80;15.73;;;;;;;1.92;61.70;96662.13;5078421;28;20743;-65
2021/03/09 06:09:01;;;;;;;31.90;16.37;;;;;;;2.03;61.41;96651.00;5054304;28;20175;-64
2021/03/09 06:11:27;;;;;;;27.40;15.80;;;;;;;2.12;60.64;96654.69;5052174;28;20851;-65
2021/03/09 06:13:54;;;;;;;23.87;15.07;;;;;;;2.21;60.42;96650.56;5050239;28;20441;-64
2021/03/09 06:16:20;;;;;;;25.33;15.53;;;;;;;2.07;60.24;96659.34;5037979;28;20187;-65
2021/03/09 06:18:58;;;;;;;27.03;15.77;;;;;;;1.96;60.46;96658.38;5050509;28;20426;-65
2021/03/09 06:21:25;;;;;;;29.33;16.50;;;;;;;1.99;60.41;96660.75;5054319;28;20446;-64
2021/03/09 06:23:51;;;;;;;26.23;15.47;;;;;;;2.09;60.79;96663.47;5051548;28;20517;-64
2021/03/09 06:26:35;;;;;;;28.90;17.13;;;;;;;2.18;60.30;96663.75;5053123;28;20563;-65
2021/03/09 06:29:13;;;;;;;27.13;17.40;;;;;;;2.28;59.91;96667.31;5051774;28;20500;-65
2021/03/09 06:31:49;;;;;;;27.57;18.27;;;;;;;2.24;59.98;96655.53;5053482;28;20503;-65
2021/03/09 06:34:22;;;;;;;29.20;18.53;;;;;;;2.38;60.51;96665.69;5060394;28;20405;-65
2021/03/09 06:37:01;;;;;;;31.83;17.80;;;;;;;2.54;60.03;96657.59;5054977;28;20547;-65
2021/03/09 06:40:02;;;;;;;29.33;18.50;;;;;;;2.71;59.67;96655.50;5060562;28;20492;-64
2021/03/09 06:42:30;;;;;;;32.53;18.93;;;;;;;2.81;59.58;96664.19;5027497;28;20903;-65
2021/03/09 06:45:15;;;;;;;38.23;17.77;;;;;;;2.85;59.24;96668.22;5029088;28;21005;-65
2021/03/09 06:47:49;;;;;;;29.87;18.00;;;;;;;2.94;58.80;96663.25;5028176;28;20522;-65
2021/03/09 06:50:33;;;;;;;34.53;19.57;;;;;;;2.96;59.29;96664.78;5029833;28;20898;-64
2021/03/09 06:53:00;;;;;;;33.60;20.20;;;;;;;3.08;59.15;96663.03;5028963;28;20620;-65
2021/03/09 06:55:31;;;;;;;39.53;22.13;;;;;;;3.20;58.82;96666.44;5028722;28;20434;-64
2021/03/09 06:58:13;;;;;;;45.80;24.70;;;;;;;3.34;58.52;96667.94;5027821;28;20474;-65
2021/03/09 07:00:42;;;;;;;46.50;25.80;;;;;;;3.48;58.05;96667.69;5029054;28;20535;-64
2021/03/09 07:03:33;;;;;;;38.67;23.03;;;;;;;3.62;57.79;96663.19;5028622;28;20502;-64
2021/03/09 07:06:02;;;;;;;38.80;22.40;;;;;;;3.75;58.09;96666.44;5029050;28;20411;-66
2021/03/09 07:08:28;;;;;;;34.50;22.80;;;;;;;3.87;57.81;96662.03;5028773;28;20472;-66
2021/03/09 07:10:55;;;;;;;44.70;23.60;;;;;;;3.94;57.38;96670.13;5014545;28;20771;-65
2021/03/09 07:13:25;;;;;;;48.93;23.20;;;;;;;3.99;57.69;96670.59;5029997;28;20452;-63
2021/03/09 07:15:51;;;;;;;31.07;21.43;;;;;;;4.09;57.35;96678.47;5028750;28;20413;-63
2021/03/09 07:18:24;;;;;;;31.70;20.87;;;;;;;4.21;56.95;96676.63;5031625;28;20986;-65
2021/03/09 07:20:52;;;;;;;32.87;19.77;;;;;;;4.35;56.53;96672.91;5050959;28;20488;-64
2021/03/09 07:23:19;;;;;;;41.30;20.30;;;;;;;4.44;55.95;96685.13;5048878;28;20414;-64
2021/03/09 07:25:52;;;;;;;32.10;20.20;;;;;;;4.64;55.53;96691.28;5071305;28;20421;-63
2021/03/09 07:28:20;;;;;;;28.33;19.27;;;;;;;4.74;55.58;96681.75;5049810;28;21121;-63
2021/03/09 07:30:47;;;;;;;36.23;20.23;;;;;;;4.80;54.98;96682.19;5048974;28;20445;-64
2021/03/09 07:33:13;;;;;;;29.93;19.80;;;;;;;4.94;54.99;96681.84;5057396;28;20920;-64
2021/03/09 07:35:39;;;;;;;45.17;21.13;;;;;;;5.01;54.90;96680.38;5033117;28;20968;-65
2021/03/09 07:38:05;;;;;;;33.03;19.87;;;;;;;5.03;53.78;96688.03;5048864;28;20538;-65
2021/03/09 07:40:33;;;;;;;31.30;19.17;;;;;;;5.15;53.64;96688.78;5053058;28;20438;-63
2021/03/09 07:42:59;;;;;;;30.47;18.80;;;;;;;5.11;53.89;96687.38;5057632;28;20491;-65
2021/03/09 07:45:30;;;;;;;30.87;19.33;;;;;;;5.27;53.84;96684.28;5056518;28;20447;-65
2021/03/09 07:48:20;;;;;;;35.23;19.07;;;;;;;5.14;54.77;96680.16;5051417;28;20414;-64
2021/03/09 07:50:47;;;;;;;29.03;19.17;;;;;;;5.19;53.85;96687.53;5050343;28;20441;-65
2021/03/09 07:53:18;;;;;;;34.57;21.00;;;;;;;4.98;54.86;96688.44;5052406;28;20527;-66
2021/03/09 07:55:44;;;;;;;35.10;19.93;;;;;;;5.29;53.64;96687.59;5029747;28;20784;-65
2021/03/09 07:58:16;;;;;;;30.90;18.40;;;;;;;5.53;52.96;96689.84;5062158;28;20442;-66
2021/03/09 08:01:01;;;;;;;28.07;18.17;;;;;;;5.56;52.65;96686.16;5051020;28;20867;-66
2021/03/09 08:03:31;;;;;;;45.40;19.00;;;;;;;5.17;53.55;96689.44;5050467;28;20524;-66
2021/03/09 08:06:01;;;;;;;32.53;20.03;;;;;;;5.30;52.91;96687.44;5050959;28;20773;-65
2021/03/09 08:08:46;;;;;;;30.53;18.80;;;;;;;5.51;52.41;96692.56;5051045;28;20413;-66
2021/03/09 08:11:24;;;;;;;29.37;17.50;;;;;;;5.56;52.50;96691.38;5050402;28;20524;-66
2021/03/09 08:14:02;;;;;;;43.23;18.10;;;;;;;5.14;52.80;96689.72;5050837;28;20524;-65
2021/03/09 08:16:28;;;;;;;31.20;18.50;;;;;;;5.04;53.89;96692.28;5049909;28;21043;-65
2021/03/09 08:18:54;;;;;;;30.80;19.00;;;;;;;5.39;53.80;96683.25;5049814;28;20457;-66
2021/03/09 08:21:40;;;;;;;36.20;18.43;;;;;;;5.67;52.31;96686.84;5055798;28;20198;-66
2021/03/09 08:24:06;;;;;;;32.77;18.83;;;;;;;5.86;52.64;96690.47;5033414;28;20421;-66
2021/03/09 08:26:32;;;;;;;33.30;19.47;;;;;;;6.12;52.12;96690.75;5049378;28;20505;-66
2021/03/09 08:28:58;;;;;;;38.97;21.90;;;;;;;6.25;51.19;96690.50;5048122;28;20533;-67
2021/03/09 08:31:27;;;;;;;42.03;18.80;;;;;;;6.11;51.46;96688.31;5049889;28;20251;-67
2021/03/09 08:34:13;;;;;;;35.57;18.70;;;;;;;6.49;50.37;96704.88;5052687;28;20875;-67
2021/03/09 08:36:39;;;;;;;31.87;19.27;;;;;;;6.47;50.47;96695.56;5063478;28;20453;-68
2021/03/09 08:39:05;;;;;;;28.80;18.53;;;;;;;6.30;50.39;96693.50;5056730;28;20448;-66
2021/03/09 08:41:40;;;;;;;33.60;19.43;;;;;;;6.46;50.39;96689.50;5066121;28;20307;-65
2021/03/09 08:44:15;;;;;;;28.30;18.67;;;;;;;6.13;51.06;96694.19;5054744;28;20437;-69
2021/03/09 08:47:03;;;;;;;29.30;19.37;;;;;;;6.08;51.69;96689.41;5053326;28;20777;-65
2021/03/09 08:49:37;;;;;;;29.50;18.63;;;;;;;6.53;51.10;96693.22;5040413;28;20434;-66
2021/03/09 08:52:16;;;;;;;30.87;19.93;;;;;;;6.72;50.29;96681.94;5052396;28;20419;-65
2021/03/09 08:54:48;;;;;;;29.90;19.80;;;;;;;6.91;49.62;96685.44;5057700;28;20955;-66
2021/03/09 08:57:20;;;;;;;35.70;19.80;;;;;;;6.99;49.00;96689.94;5053988;28;20503;-67
2021/03/09 08:59:51;;;;;;;26.80;18.20;;;;;;;7.10;49.09;96689.78;5050930;28;20854;-65
2021/03/09 09:02:28;;;;;;;27.63;18.30;;;;;;;7.28;48.77;96681.22;5053085;28;20426;-66
2021/03/09 09:05:04;;;;;;;25.63;17.63;;;;;;;7.50;48.08;96677.38;5059134;28;20410;-66
2021/03/09 09:07:35;;;;;;;29.80;17.97;;;;;;;7.72;46.90;96681.38;5058192;28;20431;-66
2021/03/09 09:10:22;;;;;;;26.50;17.90;;;;;;;7.71;47.16;96679.72;5061469;28;20882;-68
2021/03/09 09:12:57;;;;;;;28.50;17.70;;;;;;;7.52;47.31;96673.66;5051922;28;20801;-67
2021/03/09 09:15:25;;;;;;;24.53;16.80;;;;;;;7.96;46.66;96674.75;5053605;28;20409;-66
2021/03/09 09:18:00;;;;;;;27.90;17.17;;;;;;;7.96;47.17;96670.38;5055416;28;20831;-66
2021/03/09 09:20:34;;;;;;;27.07;17.70;;;;;;;8.13;45.50;96671.31;5053801;28;20432;-67
2021/03/09 09:23:09;;;;;;;21.47;15.40;;;;;;;8.22;45.93;96669.63;5053777;28;20432;-66
2021/03/09 09:25:37;;;;;;;22.10;16.30;;;;;;;8.33;44.92;96671.16;5053691;28;20455;-66
2021/03/09 09:28:03;;;;;;;25.10;15.77;;;;;;;8.53;44.58;96671.81;5061069;28;20416;-66
2021/03/09 09:30:39;;;;;;;23.80;14.87;;;;;;;8.61;43.84;96668.44;5052507;28;20452;-67
2021/03/09 09:33:05;;;;;;;20.10;14.30;;;;;;;8.32;44.22;96668.69;5051588;28;20436;-66
2021/03/09 09:35:32;;;;;;;28.13;15.70;;;;;;;8.66;44.32;96663.59;5053960;28;20422;-66
2021/03/09 09:38:03;;;;;;;22.20;16.43;;;;;;;8.95;43.08;96669.47;5059453;28;20459;-66
2021/03/09 09:40:36;;;;;;;26.20;16.10;;;;;;;8.71;43.38;96669.16;5054821;28;20876;-65
2021/03/09 09:43:10;;;;;;;24.33;15.07;;;;;;;8.83;43.76;96666.28;5068884;28;20498;-66
2021/03/09 09:45:54;;;;;;;30.60;18.80;;;;;;;9.02;43.13;96666.09;5053251;28;20477;-68
2021/03/09 09:48:23;;;;;;;20.87;12.50;;;;;;;9.16;42.48;96671.72;5051578;28;20535;-67
2021/03/09 09:50:51;;;;;;;18.10;13.20;;;;;;;9.01;42.57;96667.06;5061395;28;20453;-65
2021/03/09 09:53:40;;;;;;;34.07;14.73;;;;;;;9.04;42.02;96664.16;5052465;28;20432;-66
2021/03/09 09:56:07;;;;;;;24.10;12.37;;;;;;;9.31;41.68;96675.38;5052742;28;20410;-68
2021/03/09 09:58:49;;;;;;;20.10;13.40;;;;;;;9.15;41.77;96670.06;5051994;28;20473;-67
2021/03/09 10:01:23;;;;;;;20.23;14.30;;;;;;;9.68;41.18;96670.75;5049841;28;20449;-67
2021/03/09 10:03:52;;;;;;;23.30;15.50;;;;;;;9.09;42.60;96670.69;5044958;28;20555;-67
2021/03/09 10:06:18;;;;;;;25.40;14.63;;;;;;;9.19;42.23;96659.13;5062587;28;20516;-67
2021/03/09 10:08:44;;;;;;;23.87;13.93;;;;;;;8.52;43.80;96669.38;5049970;28;20501;-67
2021/03/09 10:11:11;;;;;;;21.40;12.90;;;;;;;9.20;41.78;96667.78;5052479;28;20438;-67
2021/03/09 10:13:37;;;;;;;21.07;13.30;;;;;;;9.15;41.78;96664.84;5054328;28;20848;-67
2021/03/09 10:16:03;;;;;;;23.47;13.77;;;;;;;9.21;42.65;96664.19;5052364;28;20433;-67
2021/03/09 10:18:34;;;;;;;12.77;9.37;;;;;;;9.71;39.49;96659.97;5033734;28;20461;-66
2021/03/09 10:21:05;;;;;;;17.77;10.90;;;;;;;9.95;38.92;96659.22;5051841;28;20457;-66
2021/03/09 10:23:32;;;;;;;16.10;11.70;;;;;;;10.25;38.75;96664.78;5057406;28;20434;-66
2021/03/09 10:26:00;;;;;;;17.27;12.00;;;;;;;10.18;39.12;96665.59;5078212;28;20562;-66
2021/03/09 10:28:26;;;;;;;18.57;11.70;;;;;;;10.47;38.75;96667.75;5063909;28;20421;-65
2021/03/09 10:30:52;;;;;;;15.80;12.27;;;;;;;10.52;38.01;96664.66;5051673;28;20499;-66
2021/03/09 10:33:18;;;;;;;16.33;11.40;;;;;;;10.71;38.04;96663.50;5051529;28;20432;-65
2021/03/09 10:36:07;;;;;;;15.47;10.63;;;;;;;10.50;38.97;96659.56;5054748;28;20414;-68
2021/03/09 10:38:33;;;;;;;15.87;11.50;;;;;;;10.28;38.67;96656.59;5066234;28;20210;-67
2021/03/09 10:40:59;;;;;;;15.40;11.17;;;;;;;10.71;37.69;96658.25;5079861;28;20452;-67
2021/03/09 10:43:44;;;;;;;16.67;11.07;;;;;;;10.85;37.47;96657.53;5082346;28;20433;-66
2021/03/09 10:46:11;;;;;;;15.73;10.80;;;;;;;11.22;36.42;96653.50;5066115;28;20174;-65
2021/03/09 10:48:38;;;;;;;18.13;11.00;;;;;;;11.04;36.04;96650.28;5056141;28;20471;-66
2021/03/09 10:51:24;;;;;;;18.37;11.50;;;;;;;9.87;38.53;96648.72;5052198;28;20465;-66
2021/03/09 10:53:50;;;;;;;13.43;10.10;;;;;;;10.32;37.98;96645.81;5051304;28;20481;-66
2021/03/09 10:56:15;;;;;;;14.10;10.60;;;;;;;10.53;37.40;96647.91;5059559;28;20414;-66
2021/03/09 10:58:41;;;;;;;12.37;10.10;;;;;;;10.73;36.80;96648.38;5051681;28;20170;-66
2021/03/09 11:01:07;;;;;;;12.20;9.83;;;;;;;11.11;35.92;96648.63;5052164;28;20612;-67
2021/03/09 11:03:33;;;;;;;21.93;10.97;;;;;;;10.70;36.04;96651.38;5061413;28;20197;-66
2021/03/09 11:05:58;;;;;;;16.67;10.20;;;;;;;11.32;35.02;96655.91;5086254;28;20320;-67
2021/03/09 11:08:24;;;;;;;13.90;10.10;;;;;;;11.25;35.64;96656.78;5051308;28;20205;-65
2021/03/09 11:10:51;;;;;;;12.53;10.07;;;;;;;11.06;35.57;96654.38;5059762;28;20191;-67
2021/03/09 11:13:18;;;;;;;14.70;10.30;;;;;;;10.86;35.81;96653.94;5056392;28;20511;-66
2021/03/09 11:15:44;;;;;;;15.03;10.93;;;;;;;11.47;33.97;96645.50;5053168;28;20430;-67
2021/03/09 11:18:10;;;;;;;11.07;9.87;;;;;;;11.19;32.33;96653.84;5057667;28;20786;-66
2021/03/09 11:20:38;;;;;;;15.37;9.90;;;;;;;11.17;33.02;96647.13;5051420;28;20450;-66
2021/03/09 11:23:04;;;;;;;11.50;10.30;;;;;;;11.03;33.73;96648.66;5051514;28;20677;-67
2021/03/09 11:25:29;;;;;;;13.17;10.03;;;;;;;10.87;33.96;96642.47;5049884;28;20429;-66
2021/03/09 11:27:55;;;;;;;14.87;10.13;;;;;;;10.66;34.80;96642.19;5058470;28;20248;-66
2021/03/09 11:30:21;;;;;;;13.53;10.83;;;;;;;10.80;34.13;96646.75;5049532;28;20567;-66
2021/03/09 11:32:47;;;;;;;15.37;11.80;;;;;;;10.51;34.73;96645.47;5049394;28;20179;-67